sensor_id;sensor_type;location;lat;lon;timestamp;P1;durP1;ratioP1;P2;durP2;ratioP2
65545;SDS011;52177;55.968;37.498;2023-06-24T00:00:07;10.60;;;9.50;;
65545;SDS011;52177;55.968;37.498;2023-06-24T00:00:39;10.52;;;9.63;;
65545;SDS011;52177;55.968;37.498;2023-06-24T00:01:10;9.95;;;9.10;;
65545;SDS011;52177;55.968;37.498;2023-06-24T00:01:43;10.23;;;9.32;;
65545;SDS011;52177;55.968;37.498;2023-06-24T00:02:13;10.40;;;9.50;;
65545;SDS011;52177;55.968;37.498;2023-06-24T00:02:44;9.98;;;9.00;;
65545;SDS011;52177;55.968;37.498;2023-06-24T00:03:15;10.93;;;9.90;;
65545;SDS011;52177;55.968;37.498;2023-06-24T00:03:47;9.90;;;9.10;;
65545;SDS011;52177;55.968;37.498;2023-06-24T00:04:18;10.80;;;9.93;;
65545;SDS011;52177;55.968;37.498;2023-06-24T00:04:49;11.05;;;9.93;;
65545;SDS011;52177;55.968;37.498;2023-06-24T00:05:20;10.75;;;9.75;;
65545;SDS011;52177;55.968;37.498;2023-06-24T00:05:51;10.80;;;9.90;;
65545;SDS011;52177;55.968;37.498;2023-06-24T00:06:22;11.63;;;10.38;;
65545;SDS011;52177;55.968;37.498;2023-06-24T00:06:55;10.98;;;9.98;;
65545;SDS011;52177;55.968;37.498;2023-06-24T00:07:29;10.65;;;9.65;;
65545;SDS011;52177;55.968;37.498;2023-06-24T00:08:00;10.77;;;9.77;;
65545;SDS011;52177;55.968;37.498;2023-06-24T00:08:32;11.38;;;10.27;;
65545;SDS011;52177;55.968;37.498;2023-06-24T00:09:04;10.23;;;9.32;;
65545;SDS011;52177;55.968;37.498;2023-06-24T00:09:34;11.45;;;10.43;;
65545;SDS011;52177;55.968;37.498;2023-06-24T00:10:05;10.95;;;9.85;;
65545;SDS011;52177;55.968;37.498;2023-06-24T00:10:37;11.15;;;10.25;;
65545;SDS011;52177;55.968;37.498;2023-06-24T00:11:07;11.02;;;10.05;;
65545;SDS011;52177;55.968;37.498;2023-06-24T00:11:37;10.30;;;9.50;;
65545;SDS011;52177;55.968;37.498;2023-06-24T00:12:08;10.35;;;9.35;;
65545;SDS011;52177;55.968;37.498;2023-06-24T00:12:38;9.10;;;8.30;;
65545;SDS011;52177;55.968;37.498;2023-06-24T00:13:09;9.57;;;8.57;;
65545;SDS011;52177;55.968;37.498;2023-06-24T00:13:40;9.38;;;8.48;;
65545;SDS011;52177;55.968;37.498;2023-06-24T00:14:12;9.18;;;8.43;;
65545;SDS011;52177;55.968;37.498;2023-06-24T00:14:45;8.48;;;7.88;;
65545;SDS011;52177;55.968;37.498;2023-06-24T00:15:16;8.18;;;7.57;;
65545;SDS011;52177;55.968;37.498;2023-06-24T00:15:48;8.38;;;7.68;;
65545;SDS011;52177;55.968;37.498;2023-06-24T00:16:18;8.23;;;7.53;;
65545;SDS011;52177;55.968;37.498;2023-06-24T00:16:56;7.68;;;6.80;;
65545;SDS011;52177;55.968;37.498;2023-06-24T00:17:26;8.00;;;7.05;;
65545;SDS011;52177;55.968;37.498;2023-06-24T00:17:58;7.60;;;6.97;;
65545;SDS011;52177;55.968;37.498;2023-06-24T00:18:36;6.55;;;6.05;;
65545;SDS011;52177;55.968;37.498;2023-06-24T00:19:10;6.65;;;6.13;;
65545;SDS011;52177;55.968;37.498;2023-06-24T00:19:41;6.43;;;5.90;;
65545;SDS011;52177;55.968;37.498;2023-06-24T00:20:11;7.15;;;6.25;;
65545;SDS011;52177;55.968;37.498;2023-06-24T00:20:44;6.10;;;5.65;;
65545;SDS011;52177;55.968;37.498;2023-06-24T00:21:14;6.68;;;6.10;;
65545;SDS011;52177;55.968;37.498;2023-06-24T00:21:47;6.85;;;6.22;;
65545;SDS011;52177;55.968;37.498;2023-06-24T00:22:21;6.45;;;5.95;;
65545;SDS011;52177;55.968;37.498;2023-06-24T00:22:52;6.65;;;5.82;;
65545;SDS011;52177;55.968;37.498;2023-06-24T00:23:23;6.30;;;5.72;;
65545;SDS011;52177;55.968;37.498;2023-06-24T00:23:54;6.03;;;5.55;;
65545;SDS011;52177;55.968;37.498;2023-06-24T00:24:26;6.03;;;5.32;;
65545;SDS011;52177;55.968;37.498;2023-06-24T00:24:56;6.78;;;5.30;;
65545;SDS011;52177;55.968;37.498;2023-06-24T00:25:26;5.03;;;4.63;;
65545;SDS011;52177;55.968;37.498;2023-06-24T00:25:57;7.13;;;4.20;;
65545;SDS011;52177;55.968;37.498;2023-06-24T00:26:27;4.90;;;4.50;;
65545;SDS011;52177;55.968;37.498;2023-06-24T00:26:58;4.88;;;4.45;;
65545;SDS011;52177;55.968;37.498;2023-06-24T00:27:28;4.90;;;4.40;;
65545;SDS011;52177;55.968;37.498;2023-06-24T00:27:59;4.00;;;3.70;;
65545;SDS011;52177;55.968;37.498;2023-06-24T00:28:29;4.15;;;3.72;;
65545;SDS011;52177;55.968;37.498;2023-06-24T00:29:00;4.00;;;3.70;;
65545;SDS011;52177;55.968;37.498;2023-06-24T00:29:30;5.15;;;4.10;;
65545;SDS011;52177;55.968;37.498;2023-06-24T00:30:00;3.88;;;3.58;;
65545;SDS011;52177;55.968;37.498;2023-06-24T00:30:31;4.43;;;4.03;;
65545;SDS011;52177;55.968;37.498;2023-06-24T00:31:01;4.20;;;3.83;;
65545;SDS011;52177;55.968;37.498;2023-06-24T00:31:32;7.15;;;4.10;;
65545;SDS011;52177;55.968;37.498;2023-06-24T00:32:03;3.70;;;3.40;;
65545;SDS011;52177;55.968;37.498;2023-06-24T00:32:34;4.35;;;3.95;;
65545;SDS011;52177;55.968;37.498;2023-06-24T00:33:04;5.22;;;3.67;;
65545;SDS011;52177;55.968;37.498;2023-06-24T00:33:36;4.05;;;3.75;;
65545;SDS011;52177;55.968;37.498;2023-06-24T00:34:06;3.85;;;3.40;;
65545;SDS011;52177;55.968;37.498;2023-06-24T00:34:37;3.92;;;3.60;;
65545;SDS011;52177;55.968;37.498;2023-06-24T00:35:08;3.90;;;3.60;;
65545;SDS011;52177;55.968;37.498;2023-06-24T00:35:38;4.93;;;4.18;;
65545;SDS011;52177;55.968;37.498;2023-06-24T00:36:09;4.20;;;3.80;;
65545;SDS011;52177;55.968;37.498;2023-06-24T00:36:41;3.90;;;3.60;;
65545;SDS011;52177;55.968;37.498;2023-06-24T00:37:14;6.03;;;4.15;;
65545;SDS011;52177;55.968;37.498;2023-06-24T00:37:45;4.45;;;3.72;;
65545;SDS011;52177;55.968;37.498;2023-06-24T00:38:16;3.67;;;3.38;;
65545;SDS011;52177;55.968;37.498;2023-06-24T00:38:46;4.25;;;2.92;;
65545;SDS011;52177;55.968;37.498;2023-06-24T00:39:18;3.25;;;3.05;;
65545;SDS011;52177;55.968;37.498;2023-06-24T00:39:49;3.70;;;3.42;;
65545;SDS011;52177;55.968;37.498;2023-06-24T00:40:19;4.22;;;3.25;;
65545;SDS011;52177;55.968;37.498;2023-06-24T00:40:49;3.35;;;3.15;;
65545;SDS011;52177;55.968;37.498;2023-06-24T00:41:20;3.40;;;3.15;;
65545;SDS011;52177;55.968;37.498;2023-06-24T00:41:51;3.70;;;3.35;;
65545;SDS011;52177;55.968;37.498;2023-06-24T00:42:21;3.25;;;2.95;;
65545;SDS011;52177;55.968;37.498;2023-06-24T00:42:51;3.30;;;3.10;;
65545;SDS011;52177;55.968;37.498;2023-06-24T00:43:22;3.33;;;3.03;;
65545;SDS011;52177;55.968;37.498;2023-06-24T00:43:52;3.40;;;3.08;;
65545;SDS011;52177;55.968;37.498;2023-06-24T00:44:23;3.65;;;2.70;;
65545;SDS011;52177;55.968;37.498;2023-06-24T00:44:53;3.83;;;2.97;;
65545;SDS011;52177;55.968;37.498;2023-06-24T00:45:24;3.53;;;3.17;;
65545;SDS011;52177;55.968;37.498;2023-06-24T00:45:55;3.58;;;3.13;;
65545;SDS011;52177;55.968;37.498;2023-06-24T00:46:27;5.50;;;3.38;;
65545;SDS011;52177;55.968;37.498;2023-06-24T00:46:58;3.20;;;2.97;;
65545;SDS011;52177;55.968;37.498;2023-06-24T00:47:28;3.65;;;3.17;;
65545;SDS011;52177;55.968;37.498;2023-06-24T00:48:00;3.17;;;2.97;;
65545;SDS011;52177;55.968;37.498;2023-06-24T00:48:33;3.10;;;2.90;;
65545;SDS011;52177;55.968;37.498;2023-06-24T00:49:03;2.70;;;2.50;;
65545;SDS011;52177;55.968;37.498;2023-06-24T00:49:34;4.95;;;2.72;;
65545;SDS011;52177;55.968;37.498;2023-06-24T00:50:04;3.22;;;2.92;;
65545;SDS011;52177;55.968;37.498;2023-06-24T00:50:35;2.90;;;2.70;;
65545;SDS011;52177;55.968;37.498;2023-06-24T00:51:07;3.65;;;2.50;;
65545;SDS011;52177;55.968;37.498;2023-06-24T00:51:37;2.78;;;2.58;;
65545;SDS011;52177;55.968;37.498;2023-06-24T00:52:10;2.80;;;2.40;;
65545;SDS011;52177;55.968;37.498;2023-06-24T00:52:45;2.80;;;2.60;;
65545;SDS011;52177;55.968;37.498;2023-06-24T00:53:16;2.70;;;2.50;;
65545;SDS011;52177;55.968;37.498;2023-06-24T00:53:47;2.97;;;2.50;;
65545;SDS011;52177;55.968;37.498;2023-06-24T00:54:20;2.60;;;2.40;;
65545;SDS011;52177;55.968;37.498;2023-06-24T00:54:50;2.78;;;2.58;;
65545;SDS011;52177;55.968;37.498;2023-06-24T00:55:21;2.70;;;2.50;;
65545;SDS011;52177;55.968;37.498;2023-06-24T00:55:52;2.83;;;2.63;;
65545;SDS011;52177;55.968;37.498;2023-06-24T00:56:26;3.35;;;2.72;;
65545;SDS011;52177;55.968;37.498;2023-06-24T00:56:59;2.50;;;2.15;;
65545;SDS011;52177;55.968;37.498;2023-06-24T00:57:30;2.63;;;2.42;;
65545;SDS011;52177;55.968;37.498;2023-06-24T00:58:01;2.20;;;2.10;;
65545;SDS011;52177;55.968;37.498;2023-06-24T00:58:31;3.17;;;2.63;;
65545;SDS011;52177;55.968;37.498;2023-06-24T00:59:04;2.70;;;2.50;;
65545;SDS011;52177;55.968;37.498;2023-06-24T00:59:37;3.15;;;2.50;;
65545;SDS011;52177;55.968;37.498;2023-06-24T01:00:08;2.63;;;2.38;;
65545;SDS011;52177;55.968;37.498;2023-06-24T01:00:47;2.72;;;2.53;;
65545;SDS011;52177;55.968;37.498;2023-06-24T01:01:30;3.05;;;2.58;;
65545;SDS011;52177;55.968;37.498;2023-06-24T01:02:03;4.25;;;2.38;;
65545;SDS011;52177;55.968;37.498;2023-06-24T01:02:34;3.10;;;2.80;;
65545;SDS011;52177;55.968;37.498;2023-06-24T01:03:07;3.38;;;2.60;;
65545;SDS011;52177;55.968;37.498;2023-06-24T01:03:38;4.90;;;2.78;;
65545;SDS011;52177;55.968;37.498;2023-06-24T01:04:10;2.63;;;2.40;;
65545;SDS011;52177;55.968;37.498;2023-06-24T01:04:40;2.58;;;2.38;;
65545;SDS011;52177;55.968;37.498;2023-06-24T01:05:11;2.50;;;2.30;;
65545;SDS011;52177;55.968;37.498;2023-06-24T01:05:43;2.92;;;2.45;;
65545;SDS011;52177;55.968;37.498;2023-06-24T01:06:15;2.72;;;2.53;;
65545;SDS011;52177;55.968;37.498;2023-06-24T01:06:46;2.47;;;2.38;;
65545;SDS011;52177;55.968;37.498;2023-06-24T01:07:16;2.05;;;1.95;;
65545;SDS011;52177;55.968;37.498;2023-06-24T01:07:47;2.47;;;2.28;;
65545;SDS011;52177;55.968;37.498;2023-06-24T01:08:25;2.17;;;2.08;;
65545;SDS011;52177;55.968;37.498;2023-06-24T01:08:56;2.75;;;2.55;;
65545;SDS011;52177;55.968;37.498;2023-06-24T01:09:27;2.60;;;2.40;;
65545;SDS011;52177;55.968;37.498;2023-06-24T01:09:57;3.10;;;2.63;;
65545;SDS011;52177;55.968;37.498;2023-06-24T01:10:28;3.05;;;2.50;;
65545;SDS011;52177;55.968;37.498;2023-06-24T01:10:59;2.78;;;2.58;;
65545;SDS011;52177;55.968;37.498;2023-06-24T01:11:30;2.65;;;2.45;;
65545;SDS011;52177;55.968;37.498;2023-06-24T01:12:01;2.70;;;2.50;;
65545;SDS011;52177;55.968;37.498;2023-06-24T01:12:35;3.00;;;2.67;;
65545;SDS011;52177;55.968;37.498;2023-06-24T01:13:10;2.08;;;1.98;;
65545;SDS011;52177;55.968;37.498;2023-06-24T01:13:41;2.72;;;2.13;;
65545;SDS011;52177;55.968;37.498;2023-06-24T01:14:11;2.05;;;1.80;;
65545;SDS011;52177;55.968;37.498;2023-06-24T01:14:41;2.10;;;1.90;;
65545;SDS011;52177;55.968;37.498;2023-06-24T01:15:12;2.97;;;2.00;;
65545;SDS011;52177;55.968;37.498;2023-06-24T01:15:42;2.88;;;1.40;;
65545;SDS011;52177;55.968;37.498;2023-06-24T01:16:16;1.70;;;1.60;;
65545;SDS011;52177;55.968;37.498;2023-06-24T01:17:02;1.65;;;1.40;;
65545;SDS011;52177;55.968;37.498;2023-06-24T01:20:16;1.30;;;1.20;;
65545;SDS011;52177;55.968;37.498;2023-06-24T01:21:50;2.60;;;1.60;;
65545;SDS011;52177;55.968;37.498;2023-06-24T01:27:08;1.88;;;1.35;;
65545;SDS011;52177;55.968;37.498;2023-06-24T01:27:57;2.70;;;1.20;;
65545;SDS011;52177;55.968;37.498;2023-06-24T01:28:39;1.27;;;1.17;;
65545;SDS011;52177;55.968;37.498;2023-06-24T01:31:15;1.10;;;1.00;;
65545;SDS011;52177;55.968;37.498;2023-06-24T01:31:50;1.27;;;1.17;;
65545;SDS011;52177;55.968;37.498;2023-06-24T01:32:26;2.40;;;1.20;;
65545;SDS011;52177;55.968;37.498;2023-06-24T01:33:06;2.17;;;1.30;;
65545;SDS011;52177;55.968;37.498;2023-06-24T01:33:45;1.30;;;1.20;;
65545;SDS011;52177;55.968;37.498;2023-06-24T01:35:11;1.50;;;1.30;;
65545;SDS011;52177;55.968;37.498;2023-06-24T01:35:44;1.65;;;1.20;;
65545;SDS011;52177;55.968;37.498;2023-06-24T01:36:17;1.88;;;1.40;;
65545;SDS011;52177;55.968;37.498;2023-06-24T01:36:57;1.38;;;1.27;;
65545;SDS011;52177;55.968;37.498;2023-06-24T01:37:40;1.40;;;1.30;;
65545;SDS011;52177;55.968;37.498;2023-06-24T01:38:24;1.17;;;1.17;;
65545;SDS011;52177;55.968;37.498;2023-06-24T01:39:02;2.13;;;1.80;;
65545;SDS011;52177;55.968;37.498;2023-06-24T01:39:38;1.58;;;1.30;;
65545;SDS011;52177;55.968;37.498;2023-06-24T01:40:48;1.85;;;1.50;;
65545;SDS011;52177;55.968;37.498;2023-06-24T01:41:22;1.58;;;1.48;;
65545;SDS011;52177;55.968;37.498;2023-06-24T01:41:59;1.50;;;1.23;;
65545;SDS011;52177;55.968;37.498;2023-06-24T01:42:42;2.00;;;1.60;;
65545;SDS011;52177;55.968;37.498;2023-06-24T01:43:15;1.40;;;1.30;;
65545;SDS011;52177;55.968;37.498;2023-06-24T01:43:47;1.67;;;1.50;;
65545;SDS011;52177;55.968;37.498;2023-06-24T01:44:22;2.88;;;1.17;;
65545;SDS011;52177;55.968;37.498;2023-06-24T01:44:54;1.30;;;1.20;;
65545;SDS011;52177;55.968;37.498;2023-06-24T01:45:27;2.22;;;1.30;;
65545;SDS011;52177;55.968;37.498;2023-06-24T01:46:02;1.20;;;1.10;;
65545;SDS011;52177;55.968;37.498;2023-06-24T01:46:36;1.27;;;1.17;;
65545;SDS011;52177;55.968;37.498;2023-06-24T01:47:07;1.35;;;1.25;;
65545;SDS011;52177;55.968;37.498;2023-06-24T01:47:40;1.40;;;1.30;;
65545;SDS011;52177;55.968;37.498;2023-06-24T01:48:15;2.92;;;1.45;;
65545;SDS011;52177;55.968;37.498;2023-06-24T01:48:48;2.25;;;1.40;;
65545;SDS011;52177;55.968;37.498;2023-06-24T01:49:21;3.30;;;1.42;;
65545;SDS011;52177;55.968;37.498;2023-06-24T01:49:54;1.35;;;1.25;;
65545;SDS011;52177;55.968;37.498;2023-06-24T01:50:32;1.23;;;1.13;;
65545;SDS011;52177;55.968;37.498;2023-06-24T01:51:08;2.13;;;1.30;;
65545;SDS011;52177;55.968;37.498;2023-06-24T01:51:41;4.47;;;1.55;;
65545;SDS011;52177;55.968;37.498;2023-06-24T01:52:16;1.40;;;1.30;;
65545;SDS011;52177;55.968;37.498;2023-06-24T01:52:50;2.45;;;1.17;;
65545;SDS011;52177;55.968;37.498;2023-06-24T01:53:22;1.40;;;1.30;;
65545;SDS011;52177;55.968;37.498;2023-06-24T01:54:01;1.27;;;1.17;;
65545;SDS011;52177;55.968;37.498;2023-06-24T01:54:35;1.27;;;1.17;;
65545;SDS011;52177;55.968;37.498;2023-06-24T01:55:09;0.93;;;0.93;;
65545;SDS011;52177;55.968;37.498;2023-06-24T01:55:40;1.30;;;1.20;;
65545;SDS011;52177;55.968;37.498;2023-06-24T01:56:13;1.00;;;1.00;;
65545;SDS011;52177;55.968;37.498;2023-06-24T01:56:45;2.10;;;1.10;;
65545;SDS011;52177;55.968;37.498;2023-06-24T01:57:18;1.10;;;0.90;;
65545;SDS011;52177;55.968;37.498;2023-06-24T01:57:51;1.23;;;1.00;;
65545;SDS011;52177;55.968;37.498;2023-06-24T01:58:24;1.10;;;1.00;;
65545;SDS011;52177;55.968;37.498;2023-06-24T01:58:55;1.48;;;1.00;;
65545;SDS011;52177;55.968;37.498;2023-06-24T01:59:28;1.83;;;1.10;;
65545;SDS011;52177;55.968;37.498;2023-06-24T01:59:59;1.20;;;1.05;;
65545;SDS011;52177;55.968;37.498;2023-06-24T02:00:30;0.80;;;0.80;;
65545;SDS011;52177;55.968;37.498;2023-06-24T02:01:03;0.80;;;0.80;;
65545;SDS011;52177;55.968;37.498;2023-06-24T02:01:35;0.80;;;0.80;;
65545;SDS011;52177;55.968;37.498;2023-06-24T02:02:08;2.97;;;0.93;;
65545;SDS011;52177;55.968;37.498;2023-06-24T02:02:40;0.75;;;0.75;;
65545;SDS011;52177;55.968;37.498;2023-06-24T02:03:11;0.82;;;0.82;;
65545;SDS011;52177;55.968;37.498;2023-06-24T02:03:42;0.75;;;0.75;;
65545;SDS011;52177;55.968;37.498;2023-06-24T02:04:14;1.13;;;1.02;;
65545;SDS011;52177;55.968;37.498;2023-06-24T02:04:46;0.90;;;0.90;;
65545;SDS011;52177;55.968;37.498;2023-06-24T02:05:19;1.85;;;0.88;;
65545;SDS011;52177;55.968;37.498;2023-06-24T02:05:51;1.10;;;1.00;;
65545;SDS011;52177;55.968;37.498;2023-06-24T02:06:23;0.90;;;0.90;;
65545;SDS011;52177;55.968;37.498;2023-06-24T02:06:58;1.02;;;1.00;;
65545;SDS011;52177;55.968;37.498;2023-06-24T02:07:31;2.90;;;1.00;;
65545;SDS011;52177;55.968;37.498;2023-06-24T02:08:03;1.08;;;0.70;;
65545;SDS011;52177;55.968;37.498;2023-06-24T02:08:35;0.77;;;0.77;;
65545;SDS011;52177;55.968;37.498;2023-06-24T02:09:08;0.70;;;0.70;;
65545;SDS011;52177;55.968;37.498;2023-06-24T02:09:43;1.75;;;0.80;;
65545;SDS011;52177;55.968;37.498;2023-06-24T02:10:14;2.08;;;0.70;;
65545;SDS011;52177;55.968;37.498;2023-06-24T02:10:46;1.33;;;1.05;;
65545;SDS011;52177;55.968;37.498;2023-06-24T02:11:22;0.80;;;0.80;;
65545;SDS011;52177;55.968;37.498;2023-06-24T02:11:54;0.75;;;0.73;;
65545;SDS011;52177;55.968;37.498;2023-06-24T02:12:26;0.95;;;0.80;;
65545;SDS011;52177;55.968;37.498;2023-06-24T02:12:58;0.70;;;0.70;;
65545;SDS011;52177;55.968;37.498;2023-06-24T02:13:29;2.25;;;0.80;;
65545;SDS011;52177;55.968;37.498;2023-06-24T02:14:03;0.50;;;0.50;;
65545;SDS011;52177;55.968;37.498;2023-06-24T02:14:35;0.50;;;0.50;;
65545;SDS011;52177;55.968;37.498;2023-06-24T02:15:07;0.85;;;0.82;;
65545;SDS011;52177;55.968;37.498;2023-06-24T02:15:39;0.60;;;0.60;;
65545;SDS011;52177;55.968;37.498;2023-06-24T02:16:15;1.67;;;0.88;;
65545;SDS011;52177;55.968;37.498;2023-06-24T02:16:47;1.85;;;0.73;;
65545;SDS011;52177;55.968;37.498;2023-06-24T02:17:19;0.50;;;0.50;;
65545;SDS011;52177;55.968;37.498;2023-06-24T02:17:51;0.63;;;0.63;;
65545;SDS011;52177;55.968;37.498;2023-06-24T02:18:27;0.60;;;0.60;;
65545;SDS011;52177;55.968;37.498;2023-06-24T02:18:57;0.60;;;0.60;;
65545;SDS011;52177;55.968;37.498;2023-06-24T02:19:31;0.73;;;0.70;;
65545;SDS011;52177;55.968;37.498;2023-06-24T02:20:03;0.60;;;0.60;;
65545;SDS011;52177;55.968;37.498;2023-06-24T02:20:37;0.88;;;0.45;;
65545;SDS011;52177;55.968;37.498;2023-06-24T02:21:10;1.30;;;0.60;;
65545;SDS011;52177;55.968;37.498;2023-06-24T02:21:42;1.15;;;0.60;;
65545;SDS011;52177;55.968;37.498;2023-06-24T02:22:13;1.10;;;0.70;;
65545;SDS011;52177;55.968;37.498;2023-06-24T02:22:45;1.58;;;0.70;;
65545;SDS011;52177;55.968;37.498;2023-06-24T02:23:16;0.43;;;0.43;;
65545;SDS011;52177;55.968;37.498;2023-06-24T02:23:47;1.45;;;0.70;;
65545;SDS011;52177;55.968;37.498;2023-06-24T02:24:18;0.70;;;0.60;;
65545;SDS011;52177;55.968;37.498;2023-06-24T02:24:49;1.70;;;0.60;;
65545;SDS011;52177;55.968;37.498;2023-06-24T02:25:20;1.08;;;0.60;;
65545;SDS011;52177;55.968;37.498;2023-06-24T02:25:52;0.50;;;0.50;;
65545;SDS011;52177;55.968;37.498;2023-06-24T02:26:23;0.70;;;0.70;;
65545;SDS011;52177;55.968;37.498;2023-06-24T02:26:58;0.60;;;0.60;;
65545;SDS011;52177;55.968;37.498;2023-06-24T02:27:29;1.85;;;0.70;;
65545;SDS011;52177;55.968;37.498;2023-06-24T02:28:00;2.50;;;0.60;;
65545;SDS011;52177;55.968;37.498;2023-06-24T02:28:31;0.80;;;0.50;;
65545;SDS011;52177;55.968;37.498;2023-06-24T02:29:03;0.50;;;0.50;;
65545;SDS011;52177;55.968;37.498;2023-06-24T02:29:34;0.68;;;0.65;;
65545;SDS011;52177;55.968;37.498;2023-06-24T02:30:06;0.60;;;0.60;;
65545;SDS011;52177;55.968;37.498;2023-06-24T02:30:38;3.22;;;1.15;;
65545;SDS011;52177;55.968;37.498;2023-06-24T02:31:10;2.22;;;1.02;;
65545;SDS011;52177;55.968;37.498;2023-06-24T02:31:41;0.60;;;0.60;;
65545;SDS011;52177;55.968;37.498;2023-06-24T02:32:11;0.95;;;0.63;;
65545;SDS011;52177;55.968;37.498;2023-06-24T02:32:42;1.65;;;0.60;;
65545;SDS011;52177;55.968;37.498;2023-06-24T02:33:12;0.50;;;0.50;;
65545;SDS011;52177;55.968;37.498;2023-06-24T02:33:43;1.48;;;0.55;;
65545;SDS011;52177;55.968;37.498;2023-06-24T02:34:13;2.13;;;0.60;;
65545;SDS011;52177;55.968;37.498;2023-06-24T02:34:47;0.77;;;0.77;;
65545;SDS011;52177;55.968;37.498;2023-06-24T02:35:20;0.80;;;0.65;;
65545;SDS011;52177;55.968;37.498;2023-06-24T02:35:51;0.70;;;0.70;;
65545;SDS011;52177;55.968;37.498;2023-06-24T02:36:21;0.60;;;0.60;;
65545;SDS011;52177;55.968;37.498;2023-06-24T02:36:52;1.48;;;0.50;;
65545;SDS011;52177;55.968;37.498;2023-06-24T02:37:22;0.82;;;0.75;;
65545;SDS011;52177;55.968;37.498;2023-06-24T02:37:53;1.48;;;0.60;;
65545;SDS011;52177;55.968;37.498;2023-06-24T02:38:23;0.60;;;0.60;;
65545;SDS011;52177;55.968;37.498;2023-06-24T02:38:54;0.60;;;0.60;;
65545;SDS011;52177;55.968;37.498;2023-06-24T02:39:24;0.57;;;0.57;;
65545;SDS011;52177;55.968;37.498;2023-06-24T02:39:54;0.82;;;0.70;;
65545;SDS011;52177;55.968;37.498;2023-06-24T02:40:26;0.68;;;0.68;;
65545;SDS011;52177;55.968;37.498;2023-06-24T02:40:57;0.60;;;0.60;;
65545;SDS011;52177;55.968;37.498;2023-06-24T02:41:28;0.85;;;0.70;;
65545;SDS011;52177;55.968;37.498;2023-06-24T02:41:58;2.72;;;0.70;;
65545;SDS011;52177;55.968;37.498;2023-06-24T02:42:29;1.25;;;0.63;;
65545;SDS011;52177;55.968;37.498;2023-06-24T02:42:59;1.73;;;0.60;;
65545;SDS011;52177;55.968;37.498;2023-06-24T02:43:30;0.75;;;0.50;;
65545;SDS011;52177;55.968;37.498;2023-06-24T02:44:01;1.40;;;0.80;;
65545;SDS011;52177;55.968;37.498;2023-06-24T02:44:32;0.50;;;0.50;;
65545;SDS011;52177;55.968;37.498;2023-06-24T02:45:03;0.60;;;0.60;;
65545;SDS011;52177;55.968;37.498;2023-06-24T02:45:35;1.40;;;0.50;;
65545;SDS011;52177;55.968;37.498;2023-06-24T02:46:06;1.17;;;0.60;;
65545;SDS011;52177;55.968;37.498;2023-06-24T02:46:39;1.25;;;0.50;;
65545;SDS011;52177;55.968;37.498;2023-06-24T02:47:11;1.40;;;0.60;;
65545;SDS011;52177;55.968;37.498;2023-06-24T02:47:45;1.65;;;0.50;;
65545;SDS011;52177;55.968;37.498;2023-06-24T02:48:17;0.50;;;0.45;;
65545;SDS011;52177;55.968;37.498;2023-06-24T02:48:49;0.50;;;0.50;;
65545;SDS011;52177;55.968;37.498;2023-06-24T02:49:22;0.50;;;0.50;;
65545;SDS011;52177;55.968;37.498;2023-06-24T02:49:53;1.45;;;0.60;;
65545;SDS011;52177;55.968;37.498;2023-06-24T02:50:26;0.50;;;0.40;;
65545;SDS011;52177;55.968;37.498;2023-06-24T02:50:58;0.50;;;0.50;;
65545;SDS011;52177;55.968;37.498;2023-06-24T02:51:29;1.75;;;0.40;;
65545;SDS011;52177;55.968;37.498;2023-06-24T02:52:00;0.40;;;0.40;;
65545;SDS011;52177;55.968;37.498;2023-06-24T02:52:30;0.50;;;0.50;;
65545;SDS011;52177;55.968;37.498;2023-06-24T02:53:01;0.50;;;0.50;;
65545;SDS011;52177;55.968;37.498;2023-06-24T02:53:32;1.48;;;0.50;;
65545;SDS011;52177;55.968;37.498;2023-06-24T02:54:05;0.35;;;0.35;;
65545;SDS011;52177;55.968;37.498;2023-06-24T02:54:37;1.15;;;0.50;;
65545;SDS011;52177;55.968;37.498;2023-06-24T02:55:09;0.40;;;0.40;;
65545;SDS011;52177;55.968;37.498;2023-06-24T02:55:40;0.88;;;0.50;;
65545;SDS011;52177;55.968;37.498;2023-06-24T02:56:12;0.80;;;0.60;;
65545;SDS011;52177;55.968;37.498;2023-06-24T02:56:43;0.50;;;0.40;;
65545;SDS011;52177;55.968;37.498;2023-06-24T02:57:14;1.85;;;0.50;;
65545;SDS011;52177;55.968;37.498;2023-06-24T02:57:45;0.75;;;0.40;;
65545;SDS011;52177;55.968;37.498;2023-06-24T02:58:16;1.75;;;0.40;;
65545;SDS011;52177;55.968;37.498;2023-06-24T02:58:47;1.25;;;0.50;;
65545;SDS011;52177;55.968;37.498;2023-06-24T02:59:18;0.70;;;0.70;;
65545;SDS011;52177;55.968;37.498;2023-06-24T02:59:52;0.52;;;0.52;;
65545;SDS011;52177;55.968;37.498;2023-06-24T03:00:22;0.50;;;0.50;;
65545;SDS011;52177;55.968;37.498;2023-06-24T03:00:53;1.33;;;0.60;;
65545;SDS011;52177;55.968;37.498;2023-06-24T03:01:23;0.60;;;0.60;;
65545;SDS011;52177;55.968;37.498;2023-06-24T03:01:56;0.40;;;0.40;;
65545;SDS011;52177;55.968;37.498;2023-06-24T03:02:26;0.60;;;0.60;;
65545;SDS011;52177;55.968;37.498;2023-06-24T03:02:57;0.95;;;0.50;;
65545;SDS011;52177;55.968;37.498;2023-06-24T03:03:28;1.13;;;0.60;;
65545;SDS011;52177;55.968;37.498;2023-06-24T03:03:59;0.60;;;0.60;;
65545;SDS011;52177;55.968;37.498;2023-06-24T03:04:29;1.67;;;0.50;;
65545;SDS011;52177;55.968;37.498;2023-06-24T03:05:00;1.10;;;0.63;;
65545;SDS011;52177;55.968;37.498;2023-06-24T03:05:32;0.73;;;0.60;;
65545;SDS011;52177;55.968;37.498;2023-06-24T03:06:03;0.40;;;0.40;;
65545;SDS011;52177;55.968;37.498;2023-06-24T03:06:33;1.05;;;0.68;;
65545;SDS011;52177;55.968;37.498;2023-06-24T03:07:06;0.50;;;0.50;;
65545;SDS011;52177;55.968;37.498;2023-06-24T03:07:40;0.55;;;0.55;;
65545;SDS011;52177;55.968;37.498;2023-06-24T03:08:11;1.23;;;0.50;;
65545;SDS011;52177;55.968;37.498;2023-06-24T03:08:42;2.08;;;0.60;;
65545;SDS011;52177;55.968;37.498;2023-06-24T03:09:13;0.63;;;0.60;;
65545;SDS011;52177;55.968;37.498;2023-06-24T03:09:45;0.52;;;0.52;;
65545;SDS011;52177;55.968;37.498;2023-06-24T03:10:16;0.50;;;0.47;;
65545;SDS011;52177;55.968;37.498;2023-06-24T03:10:46;0.60;;;0.60;;
65545;SDS011;52177;55.968;37.498;2023-06-24T03:11:16;0.50;;;0.50;;
65545;SDS011;52177;55.968;37.498;2023-06-24T03:11:47;3.13;;;0.68;;
65545;SDS011;52177;55.968;37.498;2023-06-24T03:12:17;0.43;;;0.43;;
65545;SDS011;52177;55.968;37.498;2023-06-24T03:12:48;0.63;;;0.63;;
65545;SDS011;52177;55.968;37.498;2023-06-24T03:13:18;0.90;;;0.60;;
65545;SDS011;52177;55.968;37.498;2023-06-24T03:13:48;0.60;;;0.60;;
65545;SDS011;52177;55.968;37.498;2023-06-24T03:14:19;0.70;;;0.70;;
65545;SDS011;52177;55.968;37.498;2023-06-24T03:14:50;0.60;;;0.60;;
65545;SDS011;52177;55.968;37.498;2023-06-24T03:15:20;0.55;;;0.55;;
65545;SDS011;52177;55.968;37.498;2023-06-24T03:15:50;0.93;;;0.55;;
65545;SDS011;52177;55.968;37.498;2023-06-24T03:16:21;0.50;;;0.50;;
65545;SDS011;52177;55.968;37.498;2023-06-24T03:16:51;0.65;;;0.65;;
65545;SDS011;52177;55.968;37.498;2023-06-24T03:17:22;0.60;;;0.60;;
65545;SDS011;52177;55.968;37.498;2023-06-24T03:17:52;1.80;;;0.50;;
65545;SDS011;52177;55.968;37.498;2023-06-24T03:18:23;0.63;;;0.60;;
65545;SDS011;52177;55.968;37.498;2023-06-24T03:18:54;1.88;;;0.77;;
65545;SDS011;52177;55.968;37.498;2023-06-24T03:19:24;1.10;;;0.60;;
65545;SDS011;52177;55.968;37.498;2023-06-24T03:19:54;1.15;;;0.50;;
65545;SDS011;52177;55.968;37.498;2023-06-24T03:20:25;1.38;;;0.55;;
65545;SDS011;52177;55.968;37.498;2023-06-24T03:20:55;0.88;;;0.52;;
65545;SDS011;52177;55.968;37.498;2023-06-24T03:21:26;2.60;;;0.60;;
65545;SDS011;52177;55.968;37.498;2023-06-24T03:21:58;0.73;;;0.52;;